createdAt,value
2019-05-05T00:00:44.620Z,23.05
2019-05-05T00:03:59.163Z,23.03
2019-05-05T00:07:04.419Z,23.02
2019-05-05T00:10:10.467Z,23.00
2019-05-05T00:13:25.961Z,23.00
2019-05-05T00:16:44.626Z,23.01
2019-05-05T00:19:50.150Z,23.01
2019-05-05T00:22:54.632Z,23.00
2019-05-05T00:25:58.369Z,22.99
2019-05-05T00:29:04.344Z,22.99
2019-05-05T00:32:08.030Z,22.97
2019-05-05T00:35:11.485Z,22.99
2019-05-05T00:38:14.937Z,22.97
2019-05-05T00:41:18.437Z,22.98
2019-05-05T00:44:21.937Z,22.97
2019-05-05T00:47:45.047Z,22.98
2019-05-05T00:50:51.689Z,22.96
2019-05-05T00:53:55.485Z,22.95
2019-05-05T00:56:59.169Z,22.95
2019-05-05T01:00:04.968Z,22.93
2019-05-05T01:03:08.036Z,22.91
2019-05-05T01:06:25.438Z,22.92
2019-05-05T01:09:30.193Z,22.93
2019-05-05T01:12:34.900Z,22.90
2019-05-05T01:15:38.411Z,22.91
2019-05-05T01:18:41.905Z,22.89
2019-05-05T01:21:45.527Z,22.90
2019-05-05T01:24:49.122Z,22.89
2019-05-05T01:27:54.555Z,22.89
2019-05-05T01:31:01.767Z,22.89
2019-05-05T01:34:10.782Z,22.87
2019-05-05T01:37:25.556Z,22.87
2019-05-05T01:40:35.448Z,22.86
2019-05-05T01:43:38.833Z,22.84
2019-05-05T01:46:44.401Z,22.86
2019-05-05T01:49:47.648Z,22.86
2019-05-05T01:52:51.146Z,22.84
2019-05-05T01:55:54.643Z,22.85
2019-05-05T01:58:58.173Z,22.86
2019-05-05T02:02:01.664Z,22.86
2019-05-05T02:05:05.317Z,22.84
2019-05-05T02:08:09.866Z,22.83
2019-05-05T02:11:15.658Z,22.80
2019-05-05T02:14:19.232Z,22.82
2019-05-05T02:17:24.709Z,22.79
2019-05-05T02:20:59.084Z,22.80
2019-05-05T02:24:02.599Z,22.80
2019-05-05T02:27:06.097Z,22.79
2019-05-05T02:30:29.898Z,22.78
2019-05-05T02:33:38.090Z,22.80
2019-05-05T02:36:41.605Z,22.77
2019-05-05T02:39:57.215Z,22.78
2019-05-05T02:42:50.462Z,22.77
2019-05-05T02:46:17.937Z,22.75
2019-05-05T02:49:21.342Z,22.76
2019-05-05T02:52:24.822Z,22.75
2019-05-05T02:55:28.297Z,22.75
2019-05-05T02:58:33.848Z,22.75
2019-05-05T03:01:44.638Z,22.73
2019-05-05T03:04:48.345Z,22.74
2019-05-05T03:07:51.840Z,22.75
2019-05-05T03:10:55.262Z,22.72
2019-05-05T03:13:58.847Z,22.75
2019-05-05T03:17:04.783Z,22.73
2019-05-05T03:20:08.223Z,22.71
2019-05-05T03:23:13.596Z,22.71
2019-05-05T03:26:16.922Z,22.73
2019-05-05T03:29:21.225Z,22.71
2019-05-05T03:32:25.638Z,22.71
2019-05-05T03:35:29.270Z,22.68
2019-05-05T03:38:33.895Z,22.71
2019-05-05T03:41:51.951Z,22.71
2019-05-05T03:45:01.589Z,22.70
2019-05-05T03:48:06.209Z,22.68
2019-05-05T03:51:18.893Z,22.67
2019-05-05T03:54:17.113Z,22.67
2019-05-05T03:57:24.621Z,22.69
2019-05-05T04:01:15.083Z,22.67
2019-05-05T04:04:29.740Z,22.67
2019-05-05T04:07:33.506Z,22.67
2019-05-05T04:10:36.997Z,22.67
2019-05-05T04:13:40.499Z,22.64
2019-05-05T04:16:50.666Z,22.66
2019-05-05T04:19:54.927Z,22.65
2019-05-05T04:22:58.487Z,22.65
2019-05-05T04:26:03.808Z,22.65
2019-05-05T04:29:07.295Z,22.63
2019-05-05T04:32:10.796Z,22.63
2019-05-05T04:35:14.304Z,22.64
2019-05-05T04:38:17.794Z,22.64
2019-05-05T04:41:24.417Z,22.60
2019-05-05T04:44:27.683Z,22.62
2019-05-05T04:47:34.322Z,22.62
2019-05-05T04:50:48.103Z,22.62
2019-05-05T04:54:09.540Z,22.62
2019-05-05T04:57:14.849Z,22.62
2019-05-05T05:00:18.145Z,22.62
2019-05-05T05:03:50.036Z,22.61
2019-05-05T05:06:55.045Z,22.61
2019-05-05T05:09:58.540Z,22.59
2019-05-05T05:13:02.052Z,22.58
2019-05-05T05:16:05.552Z,22.60
2019-05-05T05:19:09.043Z,22.59
2019-05-05T05:22:13.694Z,22.62
2019-05-05T05:25:17.184Z,22.59
2019-05-05T05:28:20.661Z,22.57
2019-05-05T05:31:24.537Z,22.56
2019-05-05T05:34:28.108Z,22.57
2019-05-05T05:37:31.594Z,22.58
2019-05-05T05:40:49.851Z,22.57
2019-05-05T05:44:15.527Z,22.54
2019-05-05T05:47:33.920Z,22.55
2019-05-05T05:50:41.794Z,22.54
2019-05-05T05:53:46.328Z,22.57
2019-05-05T05:56:49.844Z,22.58
2019-05-05T05:59:54.856Z,22.56
2019-05-05T06:02:58.473Z,22.57
2019-05-05T06:06:01.979Z,22.56
2019-05-05T06:09:05.861Z,22.56
2019-05-05T06:12:09.309Z,22.55
2019-05-05T06:15:14.230Z,22.55
2019-05-05T06:18:18.828Z,22.55
2019-05-05T06:21:24.073Z,22.56
2019-05-05T06:24:27.593Z,22.56
2019-05-05T06:27:31.098Z,22.55
2019-05-05T06:30:34.592Z,22.55
2019-05-05T06:33:39.211Z,22.56
2019-05-05T06:36:44.471Z,22.56
2019-05-05T06:39:49.705Z,22.57
2019-05-05T06:43:14.023Z,22.54
2019-05-05T06:46:21.128Z,22.57
2019-05-05T06:49:24.651Z,22.56
2019-05-05T06:52:40.923Z,22.57
2019-05-05T06:55:34.102Z,22.56
2019-05-05T06:58:38.770Z,22.56
2019-05-05T07:01:44.155Z,22.57
2019-05-05T07:04:47.356Z,22.57
2019-05-05T07:07:50.811Z,22.57
2019-05-05T07:10:54.891Z,22.55
2019-05-05T07:13:58.421Z,22.57
2019-05-05T07:17:01.958Z,22.58
2019-05-05T07:20:05.777Z,22.57
2019-05-05T07:23:10.276Z,22.66
2019-05-05T07:26:14.374Z,22.69
2019-05-05T07:29:18.201Z,22.72
2019-05-05T07:32:21.709Z,22.75
2019-05-05T07:35:34.713Z,22.78
2019-05-05T07:38:38.209Z,22.80
2019-05-05T07:41:41.700Z,22.80
2019-05-05T07:44:45.134Z,22.83
2019-05-05T07:47:48.719Z,22.85
2019-05-05T07:50:59.727Z,22.87
2019-05-05T07:53:57.577Z,22.89
2019-05-05T07:57:01.054Z,22.91
2019-05-05T08:00:05.931Z,22.91
2019-05-05T08:03:09.409Z,22.93
2019-05-05T08:06:14.563Z,22.95
2019-05-05T08:09:21.797Z,22.95
2019-05-05T08:12:25.033Z,22.97
2019-05-05T08:15:29.264Z,22.98
2019-05-05T08:18:46.144Z,23.00
2019-05-05T08:21:49.724Z,23.02
2019-05-05T08:25:01.502Z,23.04
2019-05-05T08:28:18.867Z,23.05
2019-05-05T08:31:44.202Z,23.06
2019-05-05T08:34:57.464Z,23.06
2019-05-05T08:37:54.221Z,23.08
2019-05-05T08:40:59.064Z,23.08
2019-05-05T08:44:03.687Z,23.10
2019-05-05T08:47:08.304Z,23.11
2019-05-05T08:50:13.607Z,23.12
2019-05-05T08:53:16.956Z,23.13
2019-05-05T08:56:20.457Z,23.14
2019-05-05T08:59:24.305Z,23.14
2019-05-05T09:02:27.871Z,23.16
2019-05-05T09:05:31.374Z,23.17
2019-05-05T09:08:34.893Z,23.17
2019-05-05T09:11:39.411Z,23.18
2019-05-05T09:14:44.720Z,23.18
2019-05-05T09:17:48.146Z,23.17
2019-05-05T09:20:53.746Z,23.15
2019-05-05T09:24:02.606Z,23.12
2019-05-05T09:27:14.189Z,23.14
2019-05-05T09:30:34.191Z,23.15
2019-05-05T09:33:38.722Z,23.10
2019-05-05T09:36:43.952Z,23.14
2019-05-05T09:39:47.562Z,23.14
2019-05-05T09:42:53.571Z,23.15
2019-05-05T09:45:57.021Z,23.11
2019-05-05T09:49:00.511Z,23.13
2019-05-05T09:52:05.155Z,23.15
2019-05-05T09:55:08.581Z,23.18
2019-05-05T09:58:13.744Z,23.20
2019-05-05T10:01:17.423Z,23.17
2019-05-05T10:04:20.895Z,23.15
2019-05-05T10:07:24.561Z,23.17
2019-05-05T10:10:28.109Z,23.15
2019-05-05T10:13:33.211Z,23.15
2019-05-05T10:16:37.251Z,23.14
2019-05-05T10:19:40.839Z,23.14
2019-05-05T10:22:45.367Z,23.15
2019-05-05T10:25:50.747Z,23.13
2019-05-05T10:28:54.343Z,23.13
2019-05-05T10:31:58.997Z,23.16
2019-05-05T10:35:04.530Z,23.16
2019-05-05T10:38:08.209Z,23.18
2019-05-05T10:41:13.549Z,23.17
2019-05-05T10:44:17.057Z,23.18
2019-05-05T10:47:21.579Z,23.19
2019-05-05T10:50:25.077Z,23.20
2019-05-05T10:53:28.584Z,23.21
2019-05-05T10:56:32.000Z,23.24
2019-05-05T10:59:35.494Z,23.26
2019-05-05T11:02:38.926Z,23.25
2019-05-05T11:05:44.556Z,23.26
2019-05-05T11:08:47.789Z,23.27
2019-05-05T11:11:51.221Z,23.28
2019-05-05T11:14:54.655Z,23.28
2019-05-05T11:17:58.252Z,23.35
2019-05-05T11:21:03.899Z,23.35
2019-05-05T11:24:06.863Z,23.36
2019-05-05T11:27:10.362Z,23.34
2019-05-05T11:30:18.849Z,23.36
2019-05-05T11:33:37.582Z,23.41
2019-05-05T11:36:55.386Z,23.41
2019-05-05T11:39:59.792Z,23.40
2019-05-05T11:43:04.629Z,23.43
2019-05-05T11:46:10.717Z,23.45
2019-05-05T11:49:14.559Z,23.48
2019-05-05T11:52:19.663Z,23.44
2019-05-05T11:55:24.905Z,23.41
2019-05-05T11:58:29.634Z,23.41
2019-05-05T12:01:34.135Z,23.37
2019-05-05T12:04:37.560Z,23.38
2019-05-05T12:07:43.673Z,23.36
2019-05-05T12:10:58.137Z,23.34
2019-05-05T12:14:03.838Z,23.34
2019-05-05T12:17:08.448Z,23.33
2019-05-05T12:20:13.620Z,23.34
2019-05-05T12:23:17.249Z,23.37
2019-05-05T12:26:38.002Z,23.36
2019-05-05T12:29:47.048Z,23.37
2019-05-05T12:32:50.532Z,23.35
2019-05-05T12:35:54.117Z,23.34
2019-05-05T12:38:57.525Z,23.36
2019-05-05T12:42:01.001Z,23.36
2019-05-05T12:45:07.536Z,23.35
2019-05-05T12:48:18.568Z,23.36
2019-05-05T12:51:24.057Z,23.37
2019-05-05T12:54:29.596Z,23.39
2019-05-05T12:57:34.330Z,23.41
2019-05-05T13:00:40.673Z,23.41
2019-05-05T13:03:45.197Z,23.43
2019-05-05T13:06:48.685Z,23.46
2019-05-05T13:09:54.375Z,23.53
2019-05-05T13:12:57.332Z,23.54
2019-05-05T13:16:00.959Z,23.54
2019-05-05T13:19:09.076Z,23.54
2019-05-05T13:22:28.151Z,23.58
2019-05-05T13:25:55.910Z,23.55
2019-05-05T13:28:55.487Z,23.54
2019-05-05T13:31:59.092Z,23.53
2019-05-05T13:35:04.033Z,23.53
2019-05-05T13:38:07.650Z,23.55
2019-05-05T13:41:11.052Z,23.54
2019-05-05T13:44:21.722Z,23.55
2019-05-05T13:47:25.166Z,23.55
2019-05-05T13:50:40.575Z,23.55
2019-05-05T13:53:45.134Z,23.54
2019-05-05T13:56:48.601Z,23.52
2019-05-05T13:59:52.121Z,23.53
2019-05-05T14:02:55.594Z,23.53
2019-05-05T14:05:59.100Z,23.52
2019-05-05T14:09:04.370Z,23.53
2019-05-05T14:12:07.950Z,23.53
2019-05-05T14:15:15.645Z,23.54
2019-05-05T14:18:20.075Z,23.54
2019-05-05T14:21:24.501Z,23.54
2019-05-05T14:24:34.631Z,23.55
2019-05-05T14:27:39.182Z,23.54
2019-05-05T14:30:51.349Z,23.60
2019-05-05T14:33:56.829Z,23.64
2019-05-05T14:37:18.107Z,23.63
2019-05-05T14:40:23.702Z,23.63
2019-05-05T14:43:28.220Z,23.63
2019-05-05T14:46:31.736Z,23.59
2019-05-05T14:52:37.696Z,23.58
2019-05-05T14:55:44.092Z,23.54
2019-05-05T14:58:48.598Z,23.55
2019-05-05T15:01:54.168Z,23.55
2019-05-05T15:04:59.968Z,23.56
2019-05-05T15:08:34.446Z,23.55
2019-05-05T15:11:48.267Z,23.54
2019-05-05T15:14:51.759Z,23.54
2019-05-05T15:17:55.214Z,23.54
2019-05-05T15:20:58.689Z,23.51
2019-05-05T15:24:02.091Z,23.53
2019-05-05T15:27:06.614Z,23.51
2019-05-05T15:30:11.546Z,23.51
2019-05-05T15:33:15.030Z,23.53
2019-05-05T15:36:18.546Z,23.50
2019-05-05T15:39:22.026Z,23.49
2019-05-05T15:42:25.543Z,23.51
2019-05-05T15:45:29.030Z,23.49
2019-05-05T15:48:33.598Z,23.48
2019-05-05T15:51:37.175Z,23.46
2019-05-05T15:54:40.719Z,23.48
2019-05-05T15:57:45.027Z,23.48
2019-05-05T16:00:48.599Z,23.46
2019-05-05T16:03:54.200Z,23.46
2019-05-05T16:06:57.230Z,23.47
2019-05-05T16:10:03.969Z,23.48
2019-05-05T16:13:07.116Z,23.47
2019-05-05T16:16:29.112Z,23.48
2019-05-05T16:19:45.985Z,23.48
2019-05-05T16:23:20.369Z,23.47
2019-05-05T16:26:24.569Z,23.46
2019-05-05T16:29:28.202Z,23.46
2019-05-05T16:32:33.376Z,23.46
2019-05-05T16:35:36.856Z,23.45
2019-05-05T16:38:40.275Z,23.47
2019-05-05T16:41:43.857Z,23.45
2019-05-05T16:44:47.376Z,23.45
2019-05-05T16:47:50.787Z,23.46
2019-05-05T16:50:54.251Z,23.49
2019-05-05T16:53:59.923Z,23.50
2019-05-05T16:57:04.004Z,23.51
2019-05-05T17:00:09.323Z,23.51
2019-05-05T17:03:13.489Z,23.51
2019-05-05T17:06:17.307Z,23.50
2019-05-05T17:09:24.041Z,23.49
2019-05-05T17:12:27.728Z,23.52
2019-05-05T17:15:45.828Z,23.50
2019-05-05T17:19:00.440Z,23.48
2019-05-05T17:22:10.464Z,23.50
2019-05-05T17:25:14.037Z,23.49
2019-05-05T17:28:18.643Z,23.49
2019-05-05T17:31:24.239Z,23.50
2019-05-05T17:34:27.495Z,23.48
2019-05-05T17:37:33.526Z,23.49
2019-05-05T17:40:56.254Z,23.47
2019-05-05T17:44:06.037Z,23.51
2019-05-05T17:47:29.541Z,23.49
2019-05-05T17:50:55.391Z,23.50
2019-05-05T17:54:16.726Z,23.51
2019-05-05T17:57:20.257Z,23.49
2019-05-05T18:00:24.799Z,23.50
2019-05-05T18:03:28.350Z,23.51
2019-05-05T18:06:39.850Z,23.52
2019-05-05T18:10:07.264Z,23.52
2019-05-05T18:13:19.933Z,23.53
2019-05-05T18:16:26.996Z,23.50
2019-05-05T18:19:30.527Z,23.51
2019-05-05T18:22:34.344Z,23.52
2019-05-05T18:25:39.904Z,23.56
2019-05-05T18:28:45.457Z,23.53
2019-05-05T18:31:49.776Z,23.53
2019-05-05T18:34:54.552Z,23.54
2019-05-05T18:37:58.204Z,23.54
2019-05-05T18:41:05.919Z,23.52
2019-05-05T18:44:14.437Z,23.53
2019-05-05T18:47:19.131Z,23.54
2019-05-05T18:50:24.388Z,23.54
2019-05-05T18:53:28.301Z,23.52
2019-05-05T18:56:31.906Z,23.54
2019-05-05T18:59:35.551Z,23.55
2019-05-05T19:02:58.140Z,23.54
2019-05-05T19:06:06.403Z,23.54
2019-05-05T19:09:13.615Z,23.53
2019-05-05T19:12:19.103Z,23.55
2019-05-05T19:15:24.396Z,23.55
2019-05-05T19:18:27.854Z,23.54
2019-05-05T19:21:35.960Z,23.54
2019-05-05T19:24:39.460Z,23.52
2019-05-05T19:27:43.684Z,23.52
2019-05-05T19:30:48.366Z,23.51
2019-05-05T19:33:55.920Z,23.49
2019-05-05T19:36:59.623Z,23.48
2019-05-05T19:40:05.827Z,23.48
2019-05-05T19:43:08.448Z,23.47
2019-05-05T19:46:15.792Z,23.47
2019-05-05T19:49:20.243Z,23.45
2019-05-05T19:52:24.069Z,23.45
2019-05-05T19:55:27.582Z,23.46
2019-05-05T19:58:31.075Z,23.44
2019-05-05T20:01:37.692Z,23.45
2019-05-05T20:04:40.938Z,23.44
2019-05-05T20:07:45.473Z,23.41
2019-05-05T20:10:48.894Z,23.41
2019-05-05T20:14:06.158Z,23.41
2019-05-05T20:17:06.347Z,23.42
2019-05-05T20:20:09.752Z,23.37
2019-05-05T20:23:13.731Z,23.33
2019-05-05T20:26:17.241Z,23.32
2019-05-05T20:29:23.845Z,23.30
2019-05-05T20:32:34.180Z,23.26
2019-05-05T20:35:49.870Z,23.25
2019-05-05T20:38:54.919Z,23.23
2019-05-05T20:41:58.386Z,23.20
2019-05-05T20:45:04.027Z,23.18
2019-05-05T20:48:07.348Z,23.15
2019-05-05T20:51:10.863Z,23.16
2019-05-05T20:54:14.407Z,23.14
2019-05-05T20:57:17.837Z,23.12
2019-05-05T21:00:21.242Z,23.11
2019-05-05T21:03:24.736Z,23.08
2019-05-05T21:06:29.267Z,23.08
2019-05-05T21:09:34.537Z,23.08
2019-05-05T21:12:42.190Z,23.07
2019-05-05T21:15:45.019Z,23.07
2019-05-05T21:18:48.722Z,23.04
2019-05-05T21:21:54.607Z,23.02
2019-05-05T21:24:58.467Z,23.00
2019-05-05T21:28:03.623Z,23.00
2019-05-05T21:31:07.101Z,22.98
2019-05-05T21:34:10.600Z,22.97
2019-05-05T21:37:15.130Z,22.97
2019-05-05T21:40:20.914Z,22.95
2019-05-05T21:43:24.371Z,22.97
2019-05-05T21:46:27.871Z,22.94
2019-05-05T21:49:31.384Z,22.93
2019-05-05T21:52:41.087Z,22.93
2019-05-05T21:56:04.217Z,22.90
2019-05-05T21:59:07.798Z,22.90
2019-05-05T22:02:15.178Z,22.88
2019-05-05T22:05:18.166Z,22.87
2019-05-05T22:08:23.848Z,22.86
2019-05-05T22:11:26.961Z,22.86
2019-05-05T22:14:30.510Z,22.84
2019-05-05T22:17:36.338Z,22.84
2019-05-05T22:20:44.922Z,22.84
2019-05-05T22:24:06.352Z,22.83
2019-05-05T22:27:09.901Z,22.82
2019-05-05T22:30:14.205Z,22.81
2019-05-05T22:33:17.756Z,22.80
2019-05-05T22:36:21.234Z,22.80
2019-05-05T22:39:24.757Z,22.79
2019-05-05T22:42:28.240Z,22.76
2019-05-05T22:45:31.757Z,22.77
2019-05-05T22:48:35.239Z,22.75
2019-05-05T22:51:38.858Z,22.76
2019-05-05T22:54:44.277Z,22.75
2019-05-05T22:57:47.582Z,22.76
2019-05-05T23:00:51.088Z,22.73
2019-05-05T23:04:28.724Z,22.72
2019-05-05T23:07:34.964Z,22.72
2019-05-05T23:10:38.557Z,22.70
2019-05-05T23:13:41.970Z,22.71
2019-05-05T23:16:47.231Z,22.70
2019-05-05T23:20:04.823Z,22.69
2019-05-05T23:23:17.909Z,22.66
2019-05-05T23:26:22.382Z,22.66
2019-05-05T23:29:26.612Z,22.67
2019-05-05T23:32:30.312Z,22.67
2019-05-05T23:35:34.447Z,22.65
2019-05-05T23:38:38.020Z,22.65
2019-05-05T23:41:41.441Z,22.63
2019-05-05T23:44:45.016Z,22.63
2019-05-05T23:47:49.421Z,22.64
2019-05-05T23:50:54.165Z,22.64
2019-05-05T23:53:58.802Z,22.62
2019-05-05T23:57:04.567Z,22.61
